Darstellungsparameter: Aktuell verwendete Einstellungen:
Skalierung der Graphiken ... ?
xyx+y,   Skalierungsfaktor:      Skalierung: Modus: x, Faktor: 1
Darstellungszeitraum ... ?
Vom - - bis: - -   Zeitraum: 14.06.2020 - 15.06.2020
Min/Max/Avg-Anzeige ... ?
Zeige MMA aktuell
Zeige MMA Monat
Zeige MMA alles
Zeige --A aktuell
Zeige --A Monat
Zeige --A alles
Keine MMA-Anzeige
MMA:
Average (ber die Originaldaten)
MMA-Basis: 14.06.2020 - 15.06.2020
Quicknavigation für Darstellung... ?
Tage:      1T, 2T, 3T, 5T -1T -2T -3T -5T +1T +2T +3T +5T
Wochen: 1W, 2W, 3W -1W -2W -3W +1W +2W +3W
Monate: 1M, 3M, 6M -1M -3M -6M +1M +3M +6M
Jahre:    1J, 3J, 5J, 10J -1J -3J -5J -10J +1J +3J +5J +10J
Nutze für die Darstellung ... ?
Originaldaten oder Mittelwerte auf ...
Stundenbasis Tagesbasis Wochenbasis
Monatsbasis Jahresbasis      Datenbasis: Original-Daten
Darstellen als:
Statistik (Auto) Statistik J:M      Darstellung:
Zur Graphik,    zurück zur Übersicht aller Sensoren.
 
Tabellarische Datenbersicht: ?
 
Sensor: Nr:Datum:Temp:Abs-Feuchte:Windchill:Wind:
Aussen-T/F 1 14-06-2020 00:00:00 19.1 C 12.46 g/m*3 19.1 C 1.6 km/h
2 14-06-2020 00:05:00 18.8 C 12.24 g/m*3 18.8 C 4.8 km/h
3 14-06-2020 00:10:00 18.6 C 12.26 g/m*3 18.6 C 6.4 km/h
4 14-06-2020 00:15:00 18.5 C 12.34 g/m*3 18.5 C 3.2 km/h
5 14-06-2020 00:20:00 18.4 C 12.27 g/m*3 18.4 C 0 km/h
6 14-06-2020 00:25:00 18.3 C 12.35 g/m*3 18.3 C 0 km/h
7 14-06-2020 00:30:00 18.2 C 12.28 g/m*3 18.2 C 0 km/h
8 14-06-2020 00:35:00 18.2 C 12.43 g/m*3 18.2 C 0 km/h
9 14-06-2020 00:40:00 18.2 C 12.43 g/m*3 18.2 C 0 km/h
10 14-06-2020 00:45:00 18.1 C 12.52 g/m*3 18.1 C 0 km/h
11 14-06-2020 00:50:00 18.1 C 12.52 g/m*3 18.1 C 0 km/h
12 14-06-2020 00:55:00 18 C 12.44 g/m*3 18 C 0 km/h
13 14-06-2020 01:00:00 17.9 C 12.37 g/m*3 17.9 C 0 km/h
14 14-06-2020 01:05:00 17.9 C 12.37 g/m*3 17.9 C 0 km/h
15 14-06-2020 01:10:00 17.8 C 12.45 g/m*3 17.8 C 0 km/h
16 14-06-2020 01:15:00 17.8 C 12.6 g/m*3 17.8 C 0 km/h
17 14-06-2020 01:20:00 17.8 C 12.45 g/m*3 17.8 C 0 km/h
18 14-06-2020 01:25:00 17.8 C 12.45 g/m*3 17.8 C 0 km/h
19 14-06-2020 01:30:00 17.8 C 12.6 g/m*3 17.8 C 0 km/h
20 14-06-2020 01:35:00 17.8 C 12.6 g/m*3 17.8 C 0 km/h
21 14-06-2020 01:40:00 17.8 C 12.6 g/m*3 17.8 C 0 km/h
22 14-06-2020 01:45:00 17.8 C 12.6 g/m*3 17.8 C 0 km/h
23 14-06-2020 01:50:00 17.8 C 12.6 g/m*3 17.8 C 0 km/h
24 14-06-2020 01:55:00 17.8 C 12.75 g/m*3 17.8 C 0 km/h
25 14-06-2020 02:00:00 17.8 C 12.75 g/m*3 17.8 C 0 km/h
Sensor: Nr:Datum:Temp:Abs-Feuchte:Windchill:Wind:
Aussen-T/F 26 14-06-2020 02:05:00 17.8 C 12.75 g/m*3 17.8 C 0 km/h
27 14-06-2020 02:10:00 17.8 C 12.75 g/m*3 17.8 C 0 km/h
28 14-06-2020 02:15:00 17.8 C 12.75 g/m*3 17.8 C 0 km/h
29 14-06-2020 02:20:00 17.7 C 12.67 g/m*3 17.7 C 0 km/h
30 14-06-2020 02:25:00 17.7 C 12.67 g/m*3 17.7 C 0 km/h
31 14-06-2020 02:30:00 17.7 C 12.67 g/m*3 17.7 C 0 km/h
32 14-06-2020 02:35:00 17.7 C 12.82 g/m*3 17.7 C 0 km/h
33 14-06-2020 02:40:00 17.6 C 12.75 g/m*3 17.6 C 0 km/h
34 14-06-2020 02:45:00 17.6 C 12.6 g/m*3 17.6 C 0 km/h
35 14-06-2020 02:50:00 17.5 C 12.67 g/m*3 17.5 C 0 km/h
36 14-06-2020 02:55:00 17.4 C 12.6 g/m*3 17.4 C 0 km/h
37 14-06-2020 03:00:00 17.4 C 12.45 g/m*3 17.4 C 0 km/h
38 14-06-2020 03:05:00 17.3 C 12.37 g/m*3 17.3 C 0 km/h
39 14-06-2020 03:10:00 17.3 C 12.52 g/m*3 17.3 C 0 km/h
40 14-06-2020 03:15:00 17.3 C 12.52 g/m*3 17.3 C 0 km/h
41 14-06-2020 03:20:00 17.3 C 12.52 g/m*3 17.3 C 0 km/h
42 14-06-2020 03:25:00 17.3 C 12.52 g/m*3 17.3 C 0 km/h
43 14-06-2020 03:30:00 17.3 C 12.52 g/m*3 17.3 C 0 km/h
44 14-06-2020 03:35:00 17.2 C 12.45 g/m*3 17.2 C 0 km/h
45 14-06-2020 03:40:00 17.2 C 12.45 g/m*3 17.2 C 0 km/h
46 14-06-2020 03:45:00 17.2 C 12.45 g/m*3 17.2 C 0 km/h
47 14-06-2020 03:50:00 17.2 C 12.45 g/m*3 17.2 C 0 km/h
48 14-06-2020 03:55:00 17.1 C 12.37 g/m*3 17.1 C 0 km/h
49 14-06-2020 04:00:00 17.1 C 12.37 g/m*3 17.1 C 0 km/h
50 14-06-2020 04:05:00 17.1 C 12.37 g/m*3 17.1 C 0 km/h
Sensor: Nr:Datum:Temp:Abs-Feuchte:Windchill:Wind:
Aussen-T/F 51 14-06-2020 04:10:00 17.1 C 12.37 g/m*3 17.1 C 0 km/h
52 14-06-2020 04:15:00 17.1 C 12.37 g/m*3 17.1 C 3.2 km/h
53 14-06-2020 04:20:00 17.1 C 12.23 g/m*3 17.1 C 4.8 km/h
54 14-06-2020 04:25:00 17.2 C 12.3 g/m*3 17.2 C 4.8 km/h
55 14-06-2020 04:30:00 17.3 C 12.37 g/m*3 17.3 C 3.2 km/h
56 14-06-2020 04:35:00 17.4 C 12.3 g/m*3 17.4 C 4.8 km/h
57 14-06-2020 04:40:00 17.7 C 12.37 g/m*3 17.7 C 11.3 km/h
58 14-06-2020 04:45:00 17.8 C 12.45 g/m*3 17.8 C 11.3 km/h
59 14-06-2020 04:50:00 17.9 C 12.52 g/m*3 17.9 C 6.4 km/h
60 14-06-2020 04:55:00 17.9 C 12.52 g/m*3 17.9 C 8.1 km/h
61 14-06-2020 05:00:00 17.8 C 12.45 g/m*3 17.8 C 6.4 km/h
62 14-06-2020 05:05:00 17.8 C 12.45 g/m*3 17.8 C 6.4 km/h
63 14-06-2020 05:10:00 17.8 C 12.45 g/m*3 17.8 C 4.8 km/h
64 14-06-2020 05:15:00 17.8 C 12.45 g/m*3 17.8 C 6.4 km/h
65 14-06-2020 05:20:00 17.7 C 12.37 g/m*3 17.7 C 6.4 km/h
66 14-06-2020 05:25:00 17.7 C 12.37 g/m*3 17.7 C 4.8 km/h
67 14-06-2020 05:30:00 17.7 C 12.37 g/m*3 17.7 C 1.6 km/h
68 14-06-2020 05:35:00 17.7 C 12.52 g/m*3 17.7 C 4.8 km/h
69 14-06-2020 05:40:00 17.7 C 12.52 g/m*3 17.7 C 4.8 km/h
70 14-06-2020 05:45:00 17.6 C 12.45 g/m*3 17.6 C 6.4 km/h
71 14-06-2020 05:50:00 17.6 C 12.45 g/m*3 17.6 C 6.4 km/h
72 14-06-2020 05:55:00 17.7 C 12.52 g/m*3 17.7 C 4.8 km/h
73 14-06-2020 06:00:00 17.7 C 12.52 g/m*3 17.7 C 6.4 km/h
74 14-06-2020 06:05:00 17.7 C 12.52 g/m*3 17.7 C 6.4 km/h
75 14-06-2020 06:10:00 17.7 C 12.52 g/m*3 17.7 C 8.1 km/h
Sensor: Nr:Datum:Temp:Abs-Feuchte:Windchill:Wind:
Aussen-T/F 76 14-06-2020 06:15:00 17.7 C 12.52 g/m*3 17.7 C 4.8 km/h
77 14-06-2020 06:20:00 17.8 C 12.45 g/m*3 17.8 C 11.3 km/h
78 14-06-2020 06:25:00 17.8 C 12.45 g/m*3 17.8 C 8.1 km/h
79 14-06-2020 06:30:00 17.8 C 12.45 g/m*3 17.8 C 8.1 km/h
80 14-06-2020 06:35:00 17.8 C 12.45 g/m*3 17.8 C 8.1 km/h
81 14-06-2020 06:40:00 17.9 C 12.67 g/m*3 17.9 C 8.1 km/h
82 14-06-2020 06:45:00 17.9 C 12.67 g/m*3 17.9 C 9.7 km/h
83 14-06-2020 06:50:00 17.9 C 12.52 g/m*3 17.9 C 6.4 km/h
84 14-06-2020 06:55:00 18 C 12.59 g/m*3 18 C 4.8 km/h
85 14-06-2020 07:00:00 18.1 C 12.67 g/m*3 18.1 C 4.8 km/h
86 14-06-2020 07:05:00 18.2 C 12.75 g/m*3 18.2 C 4.8 km/h
87 14-06-2020 07:10:00 18.3 C 12.66 g/m*3 18.3 C 4.8 km/h
88 14-06-2020 07:15:00 18.4 C 12.74 g/m*3 18.4 C 4.8 km/h
89 14-06-2020 07:20:00 18.5 C 12.82 g/m*3 18.5 C 1.6 km/h
90 14-06-2020 07:25:00 18.6 C 12.73 g/m*3 18.6 C 4.8 km/h
91 14-06-2020 07:30:00 18.7 C 12.81 g/m*3 18.7 C 3.2 km/h
92 14-06-2020 07:35:00 18.7 C 12.81 g/m*3 18.7 C 4.8 km/h
93 14-06-2020 07:40:00 18.8 C 12.88 g/m*3 18.8 C 3.2 km/h
94 14-06-2020 07:45:00 18.8 C 12.88 g/m*3 18.8 C 1.6 km/h
95 14-06-2020 07:50:00 18.8 C 12.72 g/m*3 18.8 C 1.6 km/h
96 14-06-2020 07:55:00 18.9 C 12.96 g/m*3 18.9 C 6.4 km/h
97 14-06-2020 08:00:00 18.9 C 12.8 g/m*3 18.9 C 3.2 km/h
98 14-06-2020 08:05:00 19 C 12.71 g/m*3 19 C 4.8 km/h
99 14-06-2020 08:10:00 19.1 C 12.79 g/m*3 19.1 C 4.8 km/h
100 14-06-2020 08:15:00 19.1 C 12.79 g/m*3 19.1 C 4.8 km/h
Sensor: Nr:Datum:Temp:Abs-Feuchte:Windchill:Wind:
Aussen-T/F 101 14-06-2020 08:20:00 19.1 C 12.95 g/m*3 19.1 C 3.2 km/h
102 14-06-2020 08:25:00 19.1 C 12.95 g/m*3 19.1 C 0 km/h
103 14-06-2020 08:30:00 19.1 C 12.79 g/m*3 19.1 C 0 km/h
104 14-06-2020 08:35:00 19.1 C 12.79 g/m*3 19.1 C 3.2 km/h
105 14-06-2020 08:40:00 19.1 C 12.95 g/m*3 19.1 C 3.2 km/h
106 14-06-2020 08:45:00 19.1 C 12.95 g/m*3 19.1 C 3.2 km/h
107 14-06-2020 08:50:00 19.1 C 13.11 g/m*3 19.1 C 3.2 km/h
108 14-06-2020 08:55:00 19.1 C 13.11 g/m*3 19.1 C 1.6 km/h
109 14-06-2020 09:00:00 19.1 C 13.11 g/m*3 19.1 C 3.2 km/h
110 14-06-2020 09:05:00 19.1 C 13.44 g/m*3 19.1 C 3.2 km/h
111 14-06-2020 09:10:00 19.2 C 13.69 g/m*3 19.2 C 0 km/h
112 14-06-2020 09:15:00 19.2 C 13.69 g/m*3 19.2 C 1.6 km/h
113 14-06-2020 09:20:00 19.2 C 13.69 g/m*3 19.2 C 0 km/h
114 14-06-2020 09:25:00 19.1 C 13.61 g/m*3 19.1 C 1.6 km/h
115 14-06-2020 09:30:00 19.1 C 13.44 g/m*3 19.1 C 0 km/h
116 14-06-2020 09:35:00 19.1 C 13.61 g/m*3 19.1 C 1.6 km/h
117 14-06-2020 09:40:00 18.9 C 13.28 g/m*3 18.9 C 1.6 km/h
118 14-06-2020 09:45:00 18.9 C 13.45 g/m*3 18.9 C 0 km/h
119 14-06-2020 09:50:00 18.9 C 13.45 g/m*3 18.9 C 3.2 km/h
120 14-06-2020 09:55:00 18.9 C 13.28 g/m*3 18.9 C 4.8 km/h
121 14-06-2020 10:00:00 18.8 C 13.21 g/m*3 18.8 C 1.6 km/h
122 14-06-2020 10:05:00 18.9 C 13.12 g/m*3 18.9 C 0 km/h
123 14-06-2020 10:10:00 18.9 C 13.12 g/m*3 18.9 C 3.2 km/h
124 14-06-2020 10:15:00 18.9 C 13.12 g/m*3 18.9 C 1.6 km/h
125 14-06-2020 10:20:00 18.9 C 12.96 g/m*3 18.9 C 6.4 km/h
Sensor: Nr:Datum:Temp:Abs-Feuchte:Windchill:Wind:
Aussen-T/F 126 14-06-2020 10:25:00 18.9 C 12.96 g/m*3 18.9 C 6.4 km/h
127 14-06-2020 10:30:00 18.8 C 13.05 g/m*3 18.8 C 3.2 km/h
128 14-06-2020 10:35:00 18.9 C 13.12 g/m*3 18.9 C 3.2 km/h
129 14-06-2020 10:40:00 18.9 C 13.12 g/m*3 18.9 C 4.8 km/h
130 14-06-2020 10:45:00 18.9 C 13.12 g/m*3 18.9 C 4.8 km/h
131 14-06-2020 10:50:00 18.8 C 13.21 g/m*3 18.8 C 1.6 km/h
132 14-06-2020 10:55:00 18.8 C 13.05 g/m*3 18.8 C 9.7 km/h
133 14-06-2020 11:00:00 18.8 C 13.21 g/m*3 18.8 C 1.6 km/h
134 14-06-2020 11:05:00 18.7 C 13.29 g/m*3 18.7 C 1.6 km/h
135 14-06-2020 11:10:00 18.7 C 13.29 g/m*3 18.7 C 3.2 km/h
136 14-06-2020 11:15:00 18.7 C 13.13 g/m*3 18.7 C 8.1 km/h
137 14-06-2020 11:20:00 18.7 C 12.81 g/m*3 18.7 C 9.7 km/h
138 14-06-2020 11:25:00 18.8 C 12.88 g/m*3 18.8 C 4.8 km/h
139 14-06-2020 11:30:00 18.9 C 12.96 g/m*3 18.9 C 9.7 km/h
140 14-06-2020 11:35:00 19.1 C 13.11 g/m*3 19.1 C 4.8 km/h
141 14-06-2020 11:40:00 19.2 C 13.03 g/m*3 19.2 C 8.1 km/h
142 14-06-2020 11:45:00 19.2 C 13.03 g/m*3 19.2 C 8.1 km/h
143 14-06-2020 11:50:00 19.3 C 12.94 g/m*3 19.3 C 12.9 km/h
144 14-06-2020 11:55:00 19.4 C 13.01 g/m*3 19.4 C 12.9 km/h
145 14-06-2020 12:00:00 19.4 C 12.68 g/m*3 19.4 C 6.4 km/h
146 14-06-2020 12:05:00 19.4 C 12.35 g/m*3 19.4 C 11.3 km/h
147 14-06-2020 12:10:00 19.4 C 12.35 g/m*3 19.4 C 12.9 km/h
148 14-06-2020 12:15:00 19.4 C 12.35 g/m*3 19.4 C 11.3 km/h
149 14-06-2020 12:20:00 19.5 C 12.42 g/m*3 19.5 C 8.1 km/h
150 14-06-2020 12:25:00 19.6 C 12.49 g/m*3 19.6 C 6.4 km/h
Sensor: Nr:Datum:Temp:Abs-Feuchte:Windchill:Wind:
Aussen-T/F 151 14-06-2020 12:30:00 19.6 C 12.66 g/m*3 19.6 C 9.7 km/h
152 14-06-2020 12:35:00 19.7 C 12.91 g/m*3 19.7 C 4.8 km/h
153 14-06-2020 12:40:00 19.7 C 12.91 g/m*3 19.7 C 4.8 km/h
154 14-06-2020 12:45:00 19.6 C 12.66 g/m*3 19.6 C 11.3 km/h
155 14-06-2020 12:50:00 19.6 C 12.83 g/m*3 19.6 C 6.4 km/h
156 14-06-2020 12:55:00 19.5 C 12.75 g/m*3 19.5 C 4.8 km/h
157 14-06-2020 13:00:00 19.5 C 12.75 g/m*3 19.5 C 9.7 km/h
158 14-06-2020 13:05:00 19.4 C 12.68 g/m*3 19.4 C 9.7 km/h
159 14-06-2020 13:10:00 19.3 C 12.61 g/m*3 19.3 C 9.7 km/h
160 14-06-2020 13:15:00 19.3 C 12.77 g/m*3 19.3 C 11.3 km/h
161 14-06-2020 13:20:00 19.4 C 12.85 g/m*3 19.4 C 8.1 km/h
162 14-06-2020 13:25:00 19.6 C 13 g/m*3 19.6 C 8.1 km/h
163 14-06-2020 13:30:00 19.7 C 13.08 g/m*3 19.7 C 8.1 km/h
164 14-06-2020 13:35:00 19.9 C 13.06 g/m*3 19.9 C 8.1 km/h
165 14-06-2020 13:40:00 20.1 C 13.04 g/m*3 20.1 C 4.8 km/h
166 14-06-2020 13:45:00 20.1 C 13.04 g/m*3 20.1 C 11.3 km/h
167 14-06-2020 13:50:00 20.2 C 13.11 g/m*3 20.2 C 8.1 km/h
168 14-06-2020 13:55:00 20.2 C 13.11 g/m*3 20.2 C 8.1 km/h
169 14-06-2020 14:00:00 20.1 C 12.86 g/m*3 20.1 C 9.7 km/h
170 14-06-2020 14:05:00 20 C 12.96 g/m*3 20 C 11.3 km/h
171 14-06-2020 14:10:00 20 C 12.96 g/m*3 20 C 6.4 km/h
172 14-06-2020 14:15:00 20.1 C 13.04 g/m*3 20.1 C 6.4 km/h
173 14-06-2020 14:20:00 20.1 C 13.21 g/m*3 20.1 C 3.2 km/h
174 14-06-2020 14:25:00 20.2 C 13.29 g/m*3 20.2 C 1.6 km/h
175 14-06-2020 14:30:00 20.2 C 13.11 g/m*3 20.2 C 6.4 km/h
Sensor: Nr:Datum:Temp:Abs-Feuchte:Windchill:Wind:
Aussen-T/F 176 14-06-2020 14:35:00 20.3 C 13.19 g/m*3 20.3 C 4.8 km/h
177 14-06-2020 14:40:00 20.3 C 13.01 g/m*3 20.3 C 6.4 km/h
178 14-06-2020 14:45:00 20.4 C 13.09 g/m*3 20.4 C 1.6 km/h
179 14-06-2020 14:50:00 20.4 C 13.27 g/m*3 20.4 C 1.6 km/h
180 14-06-2020 14:55:00 20.3 C 12.84 g/m*3 20.3 C 3.2 km/h
181 14-06-2020 15:00:00 20.4 C 13.09 g/m*3 20.4 C 1.6 km/h
182 14-06-2020 15:05:00 20.4 C 13.27 g/m*3 20.4 C 0 km/h
183 14-06-2020 15:10:00 20.4 C 12.91 g/m*3 20.4 C 3.2 km/h
184 14-06-2020 15:15:00 20.5 C 12.81 g/m*3 20.5 C 4.8 km/h
185 14-06-2020 15:20:00 20.6 C 13.24 g/m*3 20.6 C 1.6 km/h
186 14-06-2020 15:25:00 20.6 C 13.07 g/m*3 20.6 C 1.6 km/h
187 14-06-2020 15:30:00 20.7 C 13.32 g/m*3 20.7 C 0 km/h
188 14-06-2020 15:35:00 20.7 C 13.14 g/m*3 20.7 C 3.2 km/h
189 14-06-2020 15:40:00 20.7 C 13.32 g/m*3 20.7 C 1.6 km/h
190 14-06-2020 15:45:00 20.8 C 13.4 g/m*3 20.8 C 0 km/h
191 14-06-2020 15:50:00 20.8 C 13.22 g/m*3 20.8 C 0 km/h
192 14-06-2020 15:55:00 20.8 C 13.04 g/m*3 20.8 C 1.6 km/h
193 14-06-2020 16:00:00 20.9 C 13.66 g/m*3 20.9 C 0 km/h
194 14-06-2020 16:05:00 21.1 C 14 g/m*3 21.1 C 0 km/h
195 14-06-2020 16:10:00 21.1 C 13.63 g/m*3 21.1 C 0 km/h
196 14-06-2020 16:15:00 21.2 C 14.27 g/m*3 21.2 C 0 km/h
197 14-06-2020 16:20:00 21.3 C 14.35 g/m*3 21.3 C 0 km/h
198 14-06-2020 16:25:00 21.2 C 14.27 g/m*3 21.2 C 0 km/h
199 14-06-2020 16:30:00 21.2 C 14.08 g/m*3 21.2 C 0 km/h
200 14-06-2020 16:35:00 21.2 C 14.08 g/m*3 21.2 C 0 km/h
Sensor: Nr:Datum:Temp:Abs-Feuchte:Windchill:Wind:
Aussen-T/F 201 14-06-2020 16:40:00 21.2 C 14.27 g/m*3 21.2 C 0 km/h
202 14-06-2020 16:45:00 21.3 C 14.54 g/m*3 21.3 C 0 km/h
203 14-06-2020 16:50:00 21.3 C 13.98 g/m*3 21.3 C 1.6 km/h
204 14-06-2020 16:55:00 21.3 C 13.79 g/m*3 21.3 C 0 km/h
205 14-06-2020 17:00:00 21.3 C 12.86 g/m*3 21.3 C 1.6 km/h
206 14-06-2020 17:05:00 21.2 C 12.6 g/m*3 21.2 C 4.8 km/h
207 14-06-2020 17:10:00 21.2 C 12.42 g/m*3 21.2 C 4.8 km/h
208 14-06-2020 17:15:00 21.3 C 12.49 g/m*3 21.3 C 8.1 km/h
209 14-06-2020 17:20:00 21.3 C 12.49 g/m*3 21.3 C 4.8 km/h
210 14-06-2020 17:25:00 21.3 C 12.68 g/m*3 21.3 C 1.6 km/h
211 14-06-2020 17:30:00 21.4 C 12.37 g/m*3 21.4 C 4.8 km/h
212 14-06-2020 17:35:00 21.4 C 12.75 g/m*3 21.4 C 1.6 km/h
213 14-06-2020 17:40:00 21.6 C 13.09 g/m*3 21.6 C 1.6 km/h
214 14-06-2020 17:45:00 21.4 C 13.31 g/m*3 21.4 C 4.8 km/h
215 14-06-2020 17:50:00 21.3 C 13.42 g/m*3 21.3 C 4.8 km/h
216 14-06-2020 17:55:00 21.3 C 13.42 g/m*3 21.3 C 3.2 km/h
217 14-06-2020 18:00:00 21.1 C 13.08 g/m*3 21.1 C 9.7 km/h
218 14-06-2020 18:05:00 21.1 C 13.45 g/m*3 21.1 C 1.6 km/h
219 14-06-2020 18:10:00 20.9 C 13.48 g/m*3 20.9 C 4.8 km/h
220 14-06-2020 18:15:00 20.8 C 13.4 g/m*3 20.8 C 4.8 km/h
221 14-06-2020 18:20:00 20.7 C 13.5 g/m*3 20.7 C 3.2 km/h
222 14-06-2020 18:25:00 20.6 C 13.6 g/m*3 20.6 C 9.7 km/h
223 14-06-2020 18:30:00 20.4 C 13.44 g/m*3 20.4 C 4.8 km/h
224 14-06-2020 18:35:00 20.3 C 13.54 g/m*3 20.3 C 3.2 km/h
225 14-06-2020 18:40:00 20.3 C 13.54 g/m*3 20.3 C 3.2 km/h
Sensor: Nr:Datum:Temp:Abs-Feuchte:Windchill:Wind:
Aussen-T/F 226 14-06-2020 18:45:00 20.2 C 13.46 g/m*3 20.2 C 6.4 km/h
227 14-06-2020 18:50:00 20.3 C 13.54 g/m*3 20.3 C 4.8 km/h
228 14-06-2020 18:55:00 20.3 C 13.72 g/m*3 20.3 C 3.2 km/h
229 14-06-2020 19:00:00 20.4 C 13.98 g/m*3 20.4 C 8.1 km/h
230 14-06-2020 19:05:00 20.3 C 13.89 g/m*3 20.3 C 3.2 km/h
231 14-06-2020 19:10:00 20.1 C 13.73 g/m*3 20.1 C 8.1 km/h
232 14-06-2020 19:15:00 20 C 13.65 g/m*3 20 C 3.2 km/h
233 14-06-2020 19:20:00 19.9 C 13.74 g/m*3 19.9 C 3.2 km/h
234 14-06-2020 19:25:00 19.8 C 13.49 g/m*3 19.8 C 6.4 km/h
235 14-06-2020 19:30:00 19.7 C 13.58 g/m*3 19.7 C 1.6 km/h
236 14-06-2020 19:35:00 19.7 C 13.41 g/m*3 19.7 C 1.6 km/h
237 14-06-2020 19:40:00 19.7 C 13.58 g/m*3 19.7 C 1.6 km/h
238 14-06-2020 19:45:00 19.6 C 13.67 g/m*3 19.6 C 1.6 km/h
239 14-06-2020 19:50:00 19.5 C 13.59 g/m*3 19.5 C 1.6 km/h
240 14-06-2020 19:55:00 19.4 C 13.35 g/m*3 19.4 C 8.1 km/h
241 14-06-2020 20:00:00 19.4 C 13.01 g/m*3 19.4 C 4.8 km/h
242 14-06-2020 20:05:00 19.3 C 13.1 g/m*3 19.3 C 6.4 km/h
243 14-06-2020 20:10:00 19.2 C 13.19 g/m*3 19.2 C 0 km/h
244 14-06-2020 20:15:00 19.2 C 13.52 g/m*3 19.2 C 3.2 km/h
245 14-06-2020 20:20:00 18.9 C 13.45 g/m*3 18.9 C 6.4 km/h
246 14-06-2020 20:25:00 18.7 C 13.45 g/m*3 18.7 C 6.4 km/h
247 14-06-2020 20:30:00 18.6 C 13.53 g/m*3 18.6 C 6.4 km/h
248 14-06-2020 20:35:00 18.4 C 13.53 g/m*3 18.4 C 8.1 km/h
249 14-06-2020 20:40:00 18.2 C 13.52 g/m*3 18.2 C 8.1 km/h
250 14-06-2020 20:45:00 18.1 C 13.44 g/m*3 18.1 C 8.1 km/h
Sensor: Nr:Datum:Temp:Abs-Feuchte:Windchill:Wind:
Aussen-T/F 251 14-06-2020 20:50:00 18 C 13.52 g/m*3 18 C 4.8 km/h
252 14-06-2020 20:55:00 17.9 C 13.44 g/m*3 17.9 C 8.1 km/h
253 14-06-2020 21:00:00 17.8 C 13.36 g/m*3 17.8 C 4.8 km/h
254 14-06-2020 21:05:00 17.8 C 13.36 g/m*3 17.8 C 8.1 km/h
255 14-06-2020 21:10:00 17.8 C 13.51 g/m*3 17.8 C 4.8 km/h
256 14-06-2020 21:15:00 17.8 C 13.51 g/m*3 17.8 C 3.2 km/h
257 14-06-2020 21:20:00 17.8 C 13.51 g/m*3 17.8 C 1.6 km/h
258 14-06-2020 21:25:00 17.8 C 13.51 g/m*3 17.8 C 1.6 km/h
259 14-06-2020 21:30:00 17.8 C 13.51 g/m*3 17.8 C 1.6 km/h
260 14-06-2020 21:35:00 17.8 C 13.36 g/m*3 17.8 C 3.2 km/h
261 14-06-2020 21:40:00 17.8 C 13.36 g/m*3 17.8 C 4.8 km/h
262 14-06-2020 21:45:00 17.8 C 13.2 g/m*3 17.8 C 6.4 km/h
263 14-06-2020 21:50:00 17.8 C 13.2 g/m*3 17.8 C 0 km/h
264 14-06-2020 21:55:00 17.8 C 13.2 g/m*3 17.8 C 3.2 km/h
265 14-06-2020 22:00:00 17.8 C 13.2 g/m*3 17.8 C 6.4 km/h
266 14-06-2020 22:05:00 17.8 C 13.2 g/m*3 17.8 C 1.6 km/h
267 14-06-2020 22:10:00 17.8 C 13.05 g/m*3 17.8 C 8.1 km/h
268 14-06-2020 22:15:00 17.9 C 13.13 g/m*3 17.9 C 4.8 km/h
269 14-06-2020 22:20:00 18.1 C 13.44 g/m*3 18.1 C 1.6 km/h
270 14-06-2020 22:25:00 18 C 13.36 g/m*3 18 C 1.6 km/h
271 14-06-2020 22:30:00 17.9 C 13.44 g/m*3 17.9 C 0 km/h
272 14-06-2020 22:35:00 17.9 C 13.44 g/m*3 17.9 C 3.2 km/h
273 14-06-2020 22:40:00 17.8 C 13.36 g/m*3 17.8 C 3.2 km/h
274 14-06-2020 22:45:00 17.7 C 13.28 g/m*3 17.7 C 3.2 km/h
275 14-06-2020 22:50:00 17.6 C 13.35 g/m*3 17.6 C 1.6 km/h
Sensor: Nr:Datum:Temp:Abs-Feuchte:Windchill:Wind:
Aussen-T/F 276 14-06-2020 22:55:00 17.6 C 13.35 g/m*3 17.6 C 0 km/h
277 14-06-2020 23:00:00 17.4 C 13.19 g/m*3 17.4 C 0 km/h
278 14-06-2020 23:05:00 17.4 C 13.34 g/m*3 17.4 C 0 km/h
279 14-06-2020 23:10:00 17.3 C 13.26 g/m*3 17.3 C 0 km/h
280 14-06-2020 23:15:00 17.3 C 13.26 g/m*3 17.3 C 0 km/h
281 14-06-2020 23:20:00 17.2 C 13.18 g/m*3 17.2 C 0 km/h
282 14-06-2020 23:25:00 17.2 C 13.18 g/m*3 17.2 C 0 km/h
283 14-06-2020 23:30:00 17.2 C 13.18 g/m*3 17.2 C 3.2 km/h
284 14-06-2020 23:35:00 17.1 C 13.1 g/m*3 17.1 C 4.8 km/h
285 14-06-2020 23:40:00 17.1 C 13.1 g/m*3 17.1 C 1.6 km/h
286 14-06-2020 23:45:00 17.1 C 13.1 g/m*3 17.1 C 1.6 km/h
287 14-06-2020 23:50:00 17.2 C 13.18 g/m*3 17.2 C 3.2 km/h
288 14-06-2020 23:55:00 17.2 C 13.18 g/m*3 17.2 C 1.6 km/h
289 15-06-2020 00:00:00 17.3 C 13.26 g/m*3 17.3 C 6.4 km/h
290 15-06-2020 00:05:00 17.3 C 13.11 g/m*3 17.3 C 1.6 km/h
291 15-06-2020 00:10:00 17.3 C 13.26 g/m*3 17.3 C 3.2 km/h
292 15-06-2020 00:15:00 17.4 C 13.19 g/m*3 17.4 C 3.2 km/h
293 15-06-2020 00:20:00 17.4 C 13.19 g/m*3 17.4 C 6.4 km/h
294 15-06-2020 00:25:00 17.4 C 13.04 g/m*3 17.4 C 6.4 km/h
295 15-06-2020 00:30:00 17.3 C 12.67 g/m*3 17.3 C 11.3 km/h
296 15-06-2020 00:35:00 17.3 C 12.67 g/m*3 17.3 C 11.3 km/h
297 15-06-2020 00:40:00 17.2 C 12.45 g/m*3 17.2 C 4.8 km/h
298 15-06-2020 00:45:00 17.2 C 12.45 g/m*3 17.2 C 1.6 km/h
299 15-06-2020 00:50:00 17.2 C 12.59 g/m*3 17.2 C 6.4 km/h
300 15-06-2020 00:55:00 17.1 C 12.52 g/m*3 17.1 C 3.2 km/h
Sensor: Nr:Datum:Temp:Abs-Feuchte:Windchill:Wind:
Aussen-T/F 301 15-06-2020 01:00:00 17.1 C 12.52 g/m*3 17.1 C 1.6 km/h
302 15-06-2020 01:05:00 17 C 12.44 g/m*3 17 C 1.6 km/h
303 15-06-2020 01:10:00 17 C 12.44 g/m*3 17 C 3.2 km/h
304 15-06-2020 01:15:00 16.9 C 12.51 g/m*3 16.9 C 4.8 km/h
305 15-06-2020 01:20:00 16.9 C 12.51 g/m*3 16.9 C 4.8 km/h
306 15-06-2020 01:25:00 16.9 C 12.51 g/m*3 16.9 C 6.4 km/h
307 15-06-2020 01:30:00 16.8 C 12.44 g/m*3 16.8 C 6.4 km/h
308 15-06-2020 01:35:00 16.8 C 12.44 g/m*3 16.8 C 1.6 km/h
309 15-06-2020 01:40:00 16.8 C 12.44 g/m*3 16.8 C 0 km/h
310 15-06-2020 01:45:00 16.8 C 12.58 g/m*3 16.8 C 0 km/h
311 15-06-2020 01:50:00 16.7 C 12.51 g/m*3 16.7 C 1.6 km/h
312 15-06-2020 01:55:00 16.7 C 12.51 g/m*3 16.7 C 0 km/h
313 15-06-2020 02:00:00 16.7 C 12.51 g/m*3 16.7 C 0 km/h
314 15-06-2020 02:05:00 16.7 C 12.51 g/m*3 16.7 C 3.2 km/h
315 15-06-2020 02:10:00 16.7 C 12.51 g/m*3 16.7 C 4.8 km/h
316 15-06-2020 02:15:00 16.6 C 12.57 g/m*3 16.6 C 1.6 km/h
317 15-06-2020 02:20:00 16.6 C 12.57 g/m*3 16.6 C 0 km/h
318 15-06-2020 02:25:00 16.6 C 12.57 g/m*3 16.6 C 3.2 km/h
319 15-06-2020 02:30:00 16.6 C 12.57 g/m*3 16.6 C 3.2 km/h
320 15-06-2020 02:35:00 16.6 C 12.57 g/m*3 16.6 C 1.6 km/h
321 15-06-2020 02:40:00 16.6 C 12.57 g/m*3 16.6 C 1.6 km/h
322 15-06-2020 02:45:00 16.6 C 12.57 g/m*3 16.6 C 4.8 km/h
323 15-06-2020 02:50:00 16.6 C 12.57 g/m*3 16.6 C 1.6 km/h
324 15-06-2020 02:55:00 16.6 C 12.57 g/m*3 16.6 C 0 km/h
325 15-06-2020 03:00:00 16.6 C 12.57 g/m*3 16.6 C 1.6 km/h
Sensor: Nr:Datum:Temp:Abs-Feuchte:Windchill:Wind:
Aussen-T/F 326 15-06-2020 03:05:00 16.6 C 12.57 g/m*3 16.6 C 3.2 km/h
327 15-06-2020 03:10:00 16.6 C 12.57 g/m*3 16.6 C 3.2 km/h
328 15-06-2020 03:15:00 16.6 C 12.57 g/m*3 16.6 C 0 km/h
329 15-06-2020 03:20:00 16.5 C 12.5 g/m*3 16.5 C 1.6 km/h
330 15-06-2020 03:25:00 16.5 C 12.5 g/m*3 16.5 C 3.2 km/h
331 15-06-2020 03:30:00 16.5 C 12.5 g/m*3 16.5 C 3.2 km/h
332 15-06-2020 03:35:00 16.6 C 12.57 g/m*3 16.6 C 1.6 km/h
333 15-06-2020 03:40:00 16.6 C 12.57 g/m*3 16.6 C 1.6 km/h
334 15-06-2020 03:45:00 16.6 C 12.57 g/m*3 16.6 C 0 km/h
335 15-06-2020 03:50:00 16.6 C 12.57 g/m*3 16.6 C 0 km/h
336 15-06-2020 03:55:00 16.6 C 12.57 g/m*3 16.6 C 0 km/h
337 15-06-2020 04:00:00 16.6 C 12.57 g/m*3 16.6 C 0 km/h
338 15-06-2020 04:05:00 16.6 C 12.57 g/m*3 16.6 C 1.6 km/h
339 15-06-2020 04:10:00 16.6 C 12.57 g/m*3 16.6 C 1.6 km/h
340 15-06-2020 04:15:00 16.6 C 12.71 g/m*3 16.6 C 4.8 km/h
341 15-06-2020 04:20:00 16.6 C 12.71 g/m*3 16.6 C 4.8 km/h
342 15-06-2020 04:25:00 16.6 C 12.71 g/m*3 16.6 C 4.8 km/h
343 15-06-2020 04:30:00 16.6 C 12.71 g/m*3 16.6 C 6.4 km/h
344 15-06-2020 04:35:00 16.7 C 12.79 g/m*3 16.7 C 8.1 km/h
345 15-06-2020 04:40:00 16.7 C 12.65 g/m*3 16.7 C 4.8 km/h
346 15-06-2020 04:45:00 16.7 C 12.65 g/m*3 16.7 C 6.4 km/h
347 15-06-2020 04:50:00 16.7 C 12.65 g/m*3 16.7 C 4.8 km/h
348 15-06-2020 04:55:00 16.7 C 12.65 g/m*3 16.7 C 4.8 km/h
349 15-06-2020 05:00:00 16.7 C 12.65 g/m*3 16.7 C 1.6 km/h
350 15-06-2020 05:05:00 16.6 C 12.71 g/m*3 16.6 C 0 km/h
Sensor: Nr:Datum:Temp:Abs-Feuchte:Windchill:Wind:
Aussen-T/F 351 15-06-2020 05:10:00 16.6 C 12.71 g/m*3 16.6 C 1.6 km/h
352 15-06-2020 05:15:00 16.6 C 12.71 g/m*3 16.6 C 1.6 km/h
353 15-06-2020 05:20:00 16.6 C 12.71 g/m*3 16.6 C 4.8 km/h
354 15-06-2020 05:25:00 16.5 C 12.64 g/m*3 16.5 C 1.6 km/h
355 15-06-2020 05:30:00 16.5 C 12.64 g/m*3 16.5 C 8.1 km/h
356 15-06-2020 05:35:00 16.5 C 12.64 g/m*3 16.5 C 1.6 km/h
357 15-06-2020 05:40:00 16.4 C 12.56 g/m*3 16.4 C 4.8 km/h
358 15-06-2020 05:45:00 16.5 C 12.64 g/m*3 16.5 C 4.8 km/h
359 15-06-2020 05:50:00 16.5 C 12.64 g/m*3 16.5 C 1.6 km/h
360 15-06-2020 05:55:00 16.5 C 12.64 g/m*3 16.5 C 1.6 km/h
361 15-06-2020 06:00:00 16.5 C 12.64 g/m*3 16.5 C 4.8 km/h
362 15-06-2020 06:05:00 16.6 C 12.71 g/m*3 16.6 C 4.8 km/h
363 15-06-2020 06:10:00 16.6 C 12.71 g/m*3 16.6 C 1.6 km/h
364 15-06-2020 06:15:00 16.6 C 12.71 g/m*3 16.6 C 0 km/h
365 15-06-2020 06:20:00 16.6 C 12.71 g/m*3 16.6 C 0 km/h
366 15-06-2020 06:25:00 16.6 C 12.71 g/m*3 16.6 C 3.2 km/h
367 15-06-2020 06:30:00 16.6 C 12.71 g/m*3 16.6 C 1.6 km/h
368 15-06-2020 06:35:00 16.6 C 12.71 g/m*3 16.6 C 1.6 km/h
369 15-06-2020 06:40:00 16.6 C 12.71 g/m*3 16.6 C 0 km/h
370 15-06-2020 06:45:00 16.6 C 12.71 g/m*3 16.6 C 0 km/h
371 15-06-2020 06:50:00 16.6 C 12.71 g/m*3 16.6 C 1.6 km/h
372 15-06-2020 06:55:00 16.7 C 12.79 g/m*3 16.7 C 0 km/h
373 15-06-2020 07:00:00 16.7 C 12.79 g/m*3 16.7 C 1.6 km/h
374 15-06-2020 07:05:00 16.7 C 12.79 g/m*3 16.7 C 0 km/h
375 15-06-2020 07:10:00 16.7 C 12.79 g/m*3 16.7 C 0 km/h
Sensor: Nr:Datum:Temp:Abs-Feuchte:Windchill:Wind:
Aussen-T/F 376 15-06-2020 07:15:00 16.7 C 12.79 g/m*3 16.7 C 0 km/h
377 15-06-2020 07:20:00 16.7 C 12.79 g/m*3 16.7 C 1.6 km/h
378 15-06-2020 07:25:00 16.7 C 12.79 g/m*3 16.7 C 0 km/h
379 15-06-2020 07:30:00 16.8 C 12.87 g/m*3 16.8 C 0 km/h
380 15-06-2020 07:35:00 16.8 C 12.87 g/m*3 16.8 C 4.8 km/h
381 15-06-2020 07:40:00 16.9 C 12.94 g/m*3 16.9 C 4.8 km/h
382 15-06-2020 07:45:00 16.9 C 12.94 g/m*3 16.9 C 1.6 km/h
383 15-06-2020 07:50:00 17 C 13.02 g/m*3 17 C 0 km/h
384 15-06-2020 07:55:00 17.1 C 13.1 g/m*3 17.1 C 0 km/h
385 15-06-2020 08:00:00 17.1 C 12.96 g/m*3 17.1 C 6.4 km/h
386 15-06-2020 08:05:00 17.2 C 13.03 g/m*3 17.2 C 3.2 km/h
387 15-06-2020 08:10:00 17.2 C 13.03 g/m*3 17.2 C 0 km/h
388 15-06-2020 08:15:00 17.3 C 13.11 g/m*3 17.3 C 4.8 km/h
389 15-06-2020 08:20:00 17.4 C 13.19 g/m*3 17.4 C 1.6 km/h
390 15-06-2020 08:25:00 17.4 C 13.04 g/m*3 17.4 C 3.2 km/h
391 15-06-2020 08:30:00 17.6 C 13.2 g/m*3 17.6 C 1.6 km/h
392 15-06-2020 08:35:00 17.7 C 13.13 g/m*3 17.7 C 3.2 km/h
393 15-06-2020 08:40:00 17.8 C 13.36 g/m*3 17.8 C 1.6 km/h
394 15-06-2020 08:45:00 17.9 C 13.28 g/m*3 17.9 C 6.4 km/h
395 15-06-2020 08:50:00 17.9 C 13.28 g/m*3 17.9 C 6.4 km/h
396 15-06-2020 08:55:00 18 C 13.21 g/m*3 18 C 4.8 km/h
397 15-06-2020 09:00:00 18.1 C 13.29 g/m*3 18.1 C 3.2 km/h
398 15-06-2020 09:05:00 18.1 C 13.13 g/m*3 18.1 C 6.4 km/h
399 15-06-2020 09:10:00 18.1 C 13.13 g/m*3 18.1 C 4.8 km/h
400 15-06-2020 09:15:00 18.2 C 13.21 g/m*3 18.2 C 3.2 km/h
Sensor: Nr:Datum:Temp:Abs-Feuchte:Windchill:Wind:
Aussen-T/F 401 15-06-2020 09:20:00 18.2 C 13.21 g/m*3 18.2 C 1.6 km/h
402 15-06-2020 09:25:00 18.3 C 13.45 g/m*3 18.3 C 3.2 km/h
403 15-06-2020 09:30:00 18.3 C 13.29 g/m*3 18.3 C 4.8 km/h
404 15-06-2020 09:35:00 18.3 C 13.45 g/m*3 18.3 C 6.4 km/h
405 15-06-2020 09:40:00 18.4 C 13.37 g/m*3 18.4 C 9.7 km/h
406 15-06-2020 09:45:00 18.5 C 13.45 g/m*3 18.5 C 6.4 km/h
407 15-06-2020 09:50:00 18.6 C 13.53 g/m*3 18.6 C 9.7 km/h
408 15-06-2020 09:55:00 18.8 C 13.53 g/m*3 18.8 C 4.8 km/h
409 15-06-2020 10:00:00 18.9 C 13.61 g/m*3 18.9 C 6.4 km/h
410 15-06-2020 10:05:00 19.1 C 13.77 g/m*3 19.1 C 6.4 km/h
411 15-06-2020 10:10:00 19.2 C 13.69 g/m*3 19.2 C 9.7 km/h
412 15-06-2020 10:15:00 19.2 C 13.69 g/m*3 19.2 C 8.1 km/h
413 15-06-2020 10:20:00 19.4 C 13.85 g/m*3 19.4 C 3.2 km/h
414 15-06-2020 10:25:00 19.5 C 13.76 g/m*3 19.5 C 9.7 km/h
415 15-06-2020 10:30:00 19.5 C 13.59 g/m*3 19.5 C 6.4 km/h
416 15-06-2020 10:35:00 19.5 C 13.59 g/m*3 19.5 C 3.2 km/h
417 15-06-2020 10:40:00 19.6 C 13.67 g/m*3 19.6 C 6.4 km/h
418 15-06-2020 10:45:00 19.6 C 13.84 g/m*3 19.6 C 4.8 km/h
419 15-06-2020 10:50:00 19.7 C 13.75 g/m*3 19.7 C 8.1 km/h
420 15-06-2020 10:55:00 19.7 C 13.58 g/m*3 19.7 C 6.4 km/h
421 15-06-2020 11:00:00 19.6 C 13.67 g/m*3 19.6 C 6.4 km/h
422 15-06-2020 11:05:00 19.7 C 13.58 g/m*3 19.7 C 8.1 km/h
423 15-06-2020 11:10:00 19.8 C 13.66 g/m*3 19.8 C 4.8 km/h
424 15-06-2020 11:15:00 20 C 14 g/m*3 20 C 3.2 km/h
425 15-06-2020 11:20:00 20.2 C 13.81 g/m*3 20.2 C 4.8 km/h
Sensor: Nr:Datum:Temp:Abs-Feuchte:Windchill:Wind:
Aussen-T/F 426 15-06-2020 11:25:00 20.2 C 13.81 g/m*3 20.2 C 6.4 km/h
427 15-06-2020 11:30:00 20.2 C 13.46 g/m*3 20.2 C 8.1 km/h
428 15-06-2020 11:35:00 20.2 C 13.46 g/m*3 20.2 C 6.4 km/h
429 15-06-2020 11:40:00 20.3 C 13.72 g/m*3 20.3 C 4.8 km/h
430 15-06-2020 11:45:00 20.3 C 13.54 g/m*3 20.3 C 3.2 km/h
431 15-06-2020 11:50:00 20.4 C 13.44 g/m*3 20.4 C 4.8 km/h
432 15-06-2020 11:55:00 20.5 C 13.17 g/m*3 20.5 C 4.8 km/h
433 15-06-2020 12:00:00 20.6 C 12.89 g/m*3 20.6 C 6.4 km/h
434 15-06-2020 12:05:00 20.6 C 12.53 g/m*3 20.6 C 8.1 km/h
435 15-06-2020 12:10:00 20.7 C 12.6 g/m*3 20.7 C 9.7 km/h
436 15-06-2020 12:15:00 20.6 C 12.53 g/m*3 20.6 C 8.1 km/h
437 15-06-2020 12:20:00 20.6 C 12.71 g/m*3 20.6 C 3.2 km/h
438 15-06-2020 12:25:00 20.6 C 12.71 g/m*3 20.6 C 4.8 km/h
439 15-06-2020 12:30:00 20.6 C 12.71 g/m*3 20.6 C 6.4 km/h
440 15-06-2020 12:35:00 20.6 C 12.53 g/m*3 20.6 C 4.8 km/h
441 15-06-2020 12:40:00 20.5 C 12.46 g/m*3 20.5 C 8.1 km/h
442 15-06-2020 12:45:00 20.5 C 12.46 g/m*3 20.5 C 8.1 km/h
443 15-06-2020 12:50:00 20.5 C 12.28 g/m*3 20.5 C 4.8 km/h
444 15-06-2020 12:55:00 20.5 C 11.92 g/m*3 20.5 C 6.4 km/h
445 15-06-2020 13:00:00 20.4 C 12.03 g/m*3 20.4 C 4.8 km/h
446 15-06-2020 13:05:00 20.4 C 12.21 g/m*3 20.4 C 4.8 km/h
447 15-06-2020 13:10:00 20.5 C 12.1 g/m*3 20.5 C 8.1 km/h
448 15-06-2020 13:15:00 20.5 C 12.1 g/m*3 20.5 C 6.4 km/h
449 15-06-2020 13:20:00 20.5 C 11.92 g/m*3 20.5 C 8.1 km/h
450 15-06-2020 13:25:00 20.5 C 12.1 g/m*3 20.5 C 3.2 km/h
Sensor: Nr:Datum:Temp:Abs-Feuchte:Windchill:Wind:
Aussen-T/F 451 15-06-2020 13:30:00 20.5 C 11.92 g/m*3 20.5 C 11.3 km/h
452 15-06-2020 13:35:00 20.4 C 12.03 g/m*3 20.4 C 8.1 km/h
453 15-06-2020 13:40:00 20.4 C 12.03 g/m*3 20.4 C 3.2 km/h
454 15-06-2020 13:45:00 20.4 C 11.85 g/m*3 20.4 C 6.4 km/h
455 15-06-2020 13:50:00 20.4 C 12.03 g/m*3 20.4 C 3.2 km/h
456 15-06-2020 13:55:00 20.4 C 12.03 g/m*3 20.4 C 8.1 km/h
457 15-06-2020 14:00:00 20.4 C 12.03 g/m*3 20.4 C 4.8 km/h
458 15-06-2020 14:05:00 20.5 C 12.1 g/m*3 20.5 C 0 km/h
459 15-06-2020 14:10:00 20.5 C 11.92 g/m*3 20.5 C 8.1 km/h
460 15-06-2020 14:15:00 20.6 C 12.71 g/m*3 20.6 C 3.2 km/h
461 15-06-2020 14:20:00 20.5 C 12.1 g/m*3 20.5 C 4.8 km/h
462 15-06-2020 14:25:00 20.5 C 12.46 g/m*3 20.5 C 4.8 km/h
463 15-06-2020 14:30:00 20.5 C 12.28 g/m*3 20.5 C 4.8 km/h
464 15-06-2020 14:35:00 20.5 C 12.28 g/m*3 20.5 C 6.4 km/h
465 15-06-2020 14:40:00 20.5 C 12.1 g/m*3 20.5 C 0 km/h
466 15-06-2020 14:45:00 20.6 C 12.53 g/m*3 20.6 C 0 km/h
467 15-06-2020 14:50:00 20.5 C 12.28 g/m*3 20.5 C 0 km/h
468 15-06-2020 14:55:00 20.6 C 12.35 g/m*3 20.6 C 0 km/h
469 15-06-2020 15:00:00 20.6 C 12.35 g/m*3 20.6 C 0 km/h
470 15-06-2020 15:05:00 20.6 C 12.53 g/m*3 20.6 C 0 km/h
471 15-06-2020 15:10:00 20.6 C 13.07 g/m*3 20.6 C 0 km/h
472 15-06-2020 15:15:00 20.6 C 12.89 g/m*3 20.6 C 0 km/h
473 15-06-2020 15:20:00 20.4 C 12.91 g/m*3 20.4 C 0 km/h
474 15-06-2020 15:25:00 20.4 C 13.44 g/m*3 20.4 C 0 km/h
475 15-06-2020 15:30:00 20.5 C 13.7 g/m*3 20.5 C 0 km/h
Sensor: Nr:Datum:Temp:Abs-Feuchte:Windchill:Wind:
Aussen-T/F 476 15-06-2020 15:35:00 20.6 C 13.96 g/m*3 20.6 C 0 km/h
477 15-06-2020 15:40:00 20.5 C 13.17 g/m*3 20.5 C 0 km/h
478 15-06-2020 15:45:00 20.6 C 13.24 g/m*3 20.6 C 0 km/h
479 15-06-2020 15:50:00 20.6 C 12.89 g/m*3 20.6 C 0 km/h
480 15-06-2020 15:55:00 20.7 C 12.78 g/m*3 20.7 C 0 km/h
481 15-06-2020 16:00:00 20.8 C 12.86 g/m*3 20.8 C 0 km/h
482 15-06-2020 16:05:00 20.8 C 13.04 g/m*3 20.8 C 0 km/h
483 15-06-2020 16:10:00 21 C 13.01 g/m*3 21 C 0 km/h
484 15-06-2020 16:15:00 21.1 C 13.27 g/m*3 21.1 C 0 km/h
485 15-06-2020 16:20:00 21.1 C 12.71 g/m*3 21.1 C 0 km/h
486 15-06-2020 16:25:00 21.1 C 12.71 g/m*3 21.1 C 0 km/h
487 15-06-2020 17:35:00 21.1 C 12.16 g/m*3 21.1 C 4.8 km/h
488 15-06-2020 17:40:00 21.1 C 12.16 g/m*3 21.1 C 3.2 km/h
489 15-06-2020 17:45:00 21.1 C 12.34 g/m*3 21.1 C 1.6 km/h
490 15-06-2020 17:50:00 21.1 C 12.16 g/m*3 21.1 C 4.8 km/h
491 15-06-2020 17:55:00 21.1 C 12.34 g/m*3 21.1 C 0 km/h
492 15-06-2020 18:00:00 21.2 C 12.42 g/m*3 21.2 C 0 km/h
493 15-06-2020 18:05:00 21.2 C 12.23 g/m*3 21.2 C 0 km/h
494 15-06-2020 18:10:00 21.3 C 12.49 g/m*3 21.3 C 0 km/h
495 15-06-2020 18:15:00 21.3 C 12.3 g/m*3 21.3 C 0 km/h
496 15-06-2020 18:20:00 21.3 C 12.49 g/m*3 21.3 C 0 km/h
497 15-06-2020 18:25:00 21.3 C 12.49 g/m*3 21.3 C 0 km/h
498 15-06-2020 18:30:00 21.4 C 12.37 g/m*3 21.4 C 0 km/h
499 15-06-2020 18:35:00 21.3 C 12.12 g/m*3 21.3 C 4.8 km/h
500 15-06-2020 18:40:00 21.3 C 12.3 g/m*3 21.3 C 1.6 km/h
Sensor: Nr:Datum:Temp:Abs-Feuchte:Windchill:Wind:
Aussen-T/F 501 15-06-2020 18:45:00 21.3 C 11.93 g/m*3 21.3 C 3.2 km/h
502 15-06-2020 18:50:00 21.3 C 12.12 g/m*3 21.3 C 0 km/h
503 15-06-2020 18:55:00 21.3 C 12.49 g/m*3 21.3 C 0 km/h
504 15-06-2020 19:00:00 21.4 C 12.56 g/m*3 21.4 C 0 km/h
505 15-06-2020 19:05:00 21.4 C 13.12 g/m*3 21.4 C 0 km/h
506 15-06-2020 19:10:00 21.5 C 13.39 g/m*3 21.5 C 0 km/h
507 15-06-2020 19:15:00 21.6 C 13.09 g/m*3 21.6 C 0 km/h
508 15-06-2020 19:20:00 21.6 C 13.28 g/m*3 21.6 C 0 km/h
509 15-06-2020 19:25:00 21.6 C 13.47 g/m*3 21.6 C 0 km/h
510 15-06-2020 19:30:00 21.6 C 13.66 g/m*3 21.6 C 0 km/h
511 15-06-2020 19:35:00 21.5 C 13.58 g/m*3 21.5 C 0 km/h
512 15-06-2020 19:40:00 21.3 C 13.42 g/m*3 21.3 C 0 km/h
513 15-06-2020 19:45:00 21.1 C 13.45 g/m*3 21.1 C 0 km/h
514 15-06-2020 19:50:00 20.8 C 13.22 g/m*3 20.8 C 3.2 km/h
515 15-06-2020 19:55:00 20.5 C 12.99 g/m*3 20.5 C 3.2 km/h
516 15-06-2020 20:00:00 20.3 C 12.84 g/m*3 20.3 C 4.8 km/h
517 15-06-2020 20:05:00 20.1 C 12.69 g/m*3 20.1 C 3.2 km/h
518 15-06-2020 20:10:00 19.9 C 12.71 g/m*3 19.9 C 0 km/h
519 15-06-2020 20:15:00 19.8 C 12.64 g/m*3 19.8 C 3.2 km/h
520 15-06-2020 20:20:00 19.7 C 12.91 g/m*3 19.7 C 3.2 km/h
521 15-06-2020 20:25:00 19.6 C 13 g/m*3 19.6 C 0 km/h
522 15-06-2020 20:30:00 19.5 C 12.92 g/m*3 19.5 C 3.2 km/h
523 15-06-2020 20:35:00 19.4 C 12.68 g/m*3 19.4 C 3.2 km/h
524 15-06-2020 20:40:00 19.3 C 12.77 g/m*3 19.3 C 0 km/h
525 15-06-2020 20:45:00 19.2 C 12.7 g/m*3 19.2 C 4.8 km/h
Sensor: Nr:Datum:Temp:Abs-Feuchte:Windchill:Wind:
Aussen-T/F 526 15-06-2020 20:50:00 19.1 C 12.62 g/m*3 19.1 C 4.8 km/h
527 15-06-2020 20:55:00 19.1 C 12.46 g/m*3 19.1 C 4.8 km/h
528 15-06-2020 21:00:00 18.9 C 12.31 g/m*3 18.9 C 4.8 km/h
529 15-06-2020 21:05:00 18.9 C 12.47 g/m*3 18.9 C 4.8 km/h
530 15-06-2020 21:10:00 18.8 C 12.4 g/m*3 18.8 C 6.4 km/h
531 15-06-2020 21:15:00 18.8 C 12.4 g/m*3 18.8 C 4.8 km/h
532 15-06-2020 21:20:00 18.7 C 12.33 g/m*3 18.7 C 4.8 km/h
533 15-06-2020 21:25:00 18.7 C 12.49 g/m*3 18.7 C 4.8 km/h
534 15-06-2020 21:30:00 18.6 C 12.57 g/m*3 18.6 C 4.8 km/h
535 15-06-2020 21:35:00 18.5 C 12.5 g/m*3 18.5 C 4.8 km/h
536 15-06-2020 21:40:00 18.4 C 12.58 g/m*3 18.4 C 3.2 km/h
537 15-06-2020 21:45:00 18.4 C 12.58 g/m*3 18.4 C 0 km/h
538 15-06-2020 21:50:00 18.3 C 12.51 g/m*3 18.3 C 3.2 km/h
539 15-06-2020 21:55:00 18.2 C 12.43 g/m*3 18.2 C 3.2 km/h
540 15-06-2020 22:00:00 18.1 C 12.36 g/m*3 18.1 C 3.2 km/h
541 15-06-2020 22:05:00 18 C 12.44 g/m*3 18 C 0 km/h
542 15-06-2020 22:10:00 17.9 C 12.37 g/m*3 17.9 C 0 km/h
543 15-06-2020 22:15:00 17.8 C 12.45 g/m*3 17.8 C 0 km/h
544 15-06-2020 22:20:00 17.7 C 12.37 g/m*3 17.7 C 0 km/h
545 15-06-2020 22:25:00 17.6 C 12.3 g/m*3 17.6 C 0 km/h
546 15-06-2020 22:30:00 17.6 C 12.3 g/m*3 17.6 C 0 km/h
547 15-06-2020 22:35:00 17.5 C 12.23 g/m*3 17.5 C 0 km/h
548 15-06-2020 22:40:00 17.4 C 12.3 g/m*3 17.4 C 0 km/h
549 15-06-2020 22:45:00 17.4 C 12.3 g/m*3 17.4 C 0 km/h
550 15-06-2020 22:50:00 17.4 C 12.3 g/m*3 17.4 C 0 km/h
Sensor: Nr:Datum:Temp:Abs-Feuchte:Windchill:Wind:
Aussen-T/F 551 15-06-2020 22:55:00 17.3 C 12.37 g/m*3 17.3 C 0 km/h
552 15-06-2020 23:00:00 17.3 C 12.37 g/m*3 17.3 C 0 km/h
553 15-06-2020 23:05:00 17.3 C 12.37 g/m*3 17.3 C 0 km/h
554 15-06-2020 23:10:00 17.2 C 12.3 g/m*3 17.2 C 0 km/h
555 15-06-2020 23:15:00 17.2 C 12.3 g/m*3 17.2 C 0 km/h
556 15-06-2020 23:20:00 17.2 C 12.3 g/m*3 17.2 C 0 km/h
557 15-06-2020 23:25:00 17.2 C 12.3 g/m*3 17.2 C 0 km/h
558 15-06-2020 23:30:00 17.1 C 12.23 g/m*3 17.1 C 0 km/h
559 15-06-2020 23:35:00 17.1 C 12.37 g/m*3 17.1 C 0 km/h
560 15-06-2020 23:40:00 17.1 C 12.37 g/m*3 17.1 C 0 km/h
561 15-06-2020 23:45:00 17.1 C 12.37 g/m*3 17.1 C 0 km/h
562 15-06-2020 23:50:00 17.1 C 12.37 g/m*3 17.1 C 0 km/h
563 15-06-2020 23:55:00 17.1 C 12.37 g/m*3 17.1 C 0 km/h

Legende:
   Min
   Max


Maximal/Minimal-Werte vom 14.06.2020 - 15.06.2020

Sensor Min Max Avg
Temp
(Aussen-T/F)
16.4 °C
15-06-2020  05:40:00
21.6 °C
14-06-2020  17:40:00
18.74 °C
Abs-Feuchte
(Aussen-T/F)
11.85 g/m*3
15-06-2020  13:45:00
14.54 g/m*3
14-06-2020  16:45:00
12.85 g/m*3
Windchill
(Aussen-T/F)
16.4 C
15-06-2020  05:40:00
21.6 C
14-06-2020  17:40:00
18.71 C

Die Daten stammen von einer Davis Vantage Pro 2 Wetter-Station und werden unter Linux mit der Software wview2wettercgi und aufbereitet. Alle Angaben erfolgen ohne Gewähr für ihre Vollständigkeit oder Richtigkeit.
Kontakt: Rainer Krienke krienke@uni-koblenz.de . Meine Webseiten an der Uni Koblenz oder privat.
Version: $Revision: 0.78 $